Terminal Aerodrome Forecast
Issued by NWS

Home | Current Version | Previous Version | Text Only | Print | Product List | Glossary On
Versions: 1 2 3 4 5 6 7 8 9 10 11 12 13 14 15 16 17 18
000
FTUS43 KTOP 311700
TAFFOE
TAF
KFOE 311727Z 3118/0118 16010KT 4SM -RA BR SCT007 BKN012
     FM311900 16009KT 3SM -RA BR OVC006
     FM010300 14008KT 1SM -RA BR OVC004
     FM011200 32016G28KT 5SM -SN BR OVC007=

USA.gov is the U.S. government's official web portal to all federal, state and local government web resources and services.